Sussex, Wyoming
Current Conditions -  °F | °C
As of 4:53 PM on Sunday 21 Dec 2014 (Local Time) from KBYG Reporting Station
Few Clouds Few Clouds  
Wind Chill: 32°   Ceiling: Unl
Heat Index: 43°   Visibility: 10mi
Dew Point: 16°   Wind: 31mph
Humidity: 34%   Direction: 310°NW
Pressure: 29.49"   Gusts: 44mph
Location:  43.8063°N, 106.549°W
Report Text: KBYG 212353Z AUTO 31027G38KT 10SM FEW070 06/M09 A2949 RMK AO2 PK WND 28042/2257 SLP988 60000 T00611089 10089 20039 53008 $
Loading
Personal Weather Stations






























Interactive Weather Map New forecast layout! Learn more

10-Day Weather Forecast

Advertisements
Track Severe Weather on mobile